C2 — ZCYD3 — position and weather

sailwx.info

Track history (hours):
 
Tides and Currents Weather Stations Pressure Air Temp Water Temp Dewpoint Dewpoint Depression Visibility Wind Speed Wind Dir Waves Ship Positions

C2

Last reported at 2015-May-25 12:33 UTC. Time now 2015-May-30 02:31 UTC.
Position N 43°08' E 006°42'.

Length 79 m; draft 3.4 m.

Type: Pleasure craft. MMSI: 319268000.

Date/timePositionNaut miles runAvg speedWind from/ knotsBaromVisibWave heightAir tempDewpointWater temp
2015-May-25 12:33N 43°08' E 006°42'1515.2
2015-May-25 11:33N 43°20' E 006°54'1515.2
2015-May-25 10:33N 43°32' E 007°08'8 7.2
2015-May-25 09:29N 43°39' E 007°11'7 7.4
2015-May-25 08:33N 43°33' E 007°07'4 3.9
2015-May-25 07:27N 43°31' E 007°01'2 0.1
2015-May-24 16:32N 43°33' E 007°01'3 1.6
2015-May-24 14:29N 43°30' E 007°03'4 4.1
2015-May-24 13:25N 43°33' E 007°07'0 0.0
2015-May-24 12:31N 43°33' E 007°07'0 0.0
2015-May-24 11:31N 43°33' E 007°07'4 0.8
2015-May-24 06:23N 43°33' E 007°01'0 0.0
2015-May-24 05:23N 43°33' E 007°01'0 0.0
2015-May-24 04:29N 43°33' E 007°01'0 0.0
2015-May-24 03:29N 43°33' E 007°01'3 0.1
2015-May-22 23:25N 43°29' E 006°59'6 0.6
2015-May-22 13:33N 43°33' E 007°07'0 0.1
2015-May-22 12:32N 43°33' E 007°07'0 0.0
2015-May-22 11:26N 43°33' E 007°07'0 0.1
2015-May-22 10:33N 43°33' E 007°07'1 0.7
2015-May-22 09:28N 43°34' E 007°06'0 0.0
2015-May-22 08:28N 43°34' E 007°06'0 0.0
2015-May-22 07:28N 43°33' E 007°06'0 0.0
2015-May-22 06:28N 43°33' E 007°06'0 0.0
2015-May-22 05:28N 43°33' E 007°06'0 0.0
2015-May-22 04:28N 43°33' E 007°06'0 0.0
2015-May-22 03:28N 43°33' E 007°06'0 0.0
2015-May-22 02:22N 43°33' E 007°06'0 0.0
2015-May-22 01:28N 43°33' E 007°06'0 0.0
2015-May-22 00:22N 43°33' E 007°06'0 0.0
2015-May-21 23:28N 43°33' E 007°06'0 0.0
2015-May-21 22:28N 43°33' E 007°06'0 0.0
2015-May-21 21:28N 43°33' E 007°06'0 0.0
2015-May-21 20:28N 43°33' E 007°06'0 0.0
2015-May-21 19:28N 43°33' E 007°06'0 0.0
2015-May-21 18:28N 43°33' E 007°06'0 0.0
2015-May-21 17:28N 43°33' E 007°06'0 0.0
2015-May-21 16:28N 43°34' E 007°06'0 0.0
2015-May-21 15:28N 43°34' E 007°06'0 0.0
2015-May-21 14:22N 43°34' E 007°06'0 0.0
2015-May-21 13:28N 43°34' E 007°06'1 0.9
2015-May-21 12:33N 43°33' E 007°06'4 0.7
2015-May-21 07:29N 43°33' E 007°01'0 0.0
2015-May-21 06:23N 43°33' E 007°01'0 0.0
2015-May-21 05:29N 43°33' E 007°01'0 0.0
2015-May-21 04:11N 43°33' E 007°01'0 0.0
2015-May-21 00:29N 43°33' E 007°01'0 0.0
2015-May-20 23:17N 43°33' E 007°01'0 0.0
2015-May-20 22:29N 43°33' E 007°01'0 0.0
2015-May-20 21:29N 43°33' E 007°01'0 0.0
2015-May-20 20:29N 43°33' E 007°01'0 0.0
2015-May-20 19:29N 43°33' E 007°01'0 0.1
2015-May-20 18:28N 43°32' E 007°01'0 0.0
2015-May-20 17:10N 43°32' E 007°01'1 0.9
2015-May-20 16:25N 43°32' E 007°02'0 0.0
2015-May-20 15:25N 43°32' E 007°02'0 0.0
2015-May-20 14:31N 43°32' E 007°02'0 0.0
2015-May-20 13:25N 43°32' E 007°02'0 0.0
2015-May-20 11:19N 43°32' E 007°02'0 0.0
2015-May-20 09:31N 43°32' E 007°02'0 0.0
2015-May-20 08:31N 43°32' E 007°02'0 0.0
2015-May-20 07:33N 43°32' E 007°02'4 3.7
2015-May-20 06:34N 43°34' E 007°06'0 0.0
2015-May-20 05:32N 43°34' E 007°06'0 0.0
2015-May-20 04:32N 43°34' E 007°06'0 0.0
2015-May-20 03:32N 43°34' E 007°06'0 0.0
2015-May-20 02:32N 43°34' E 007°06'0 0.0
2015-May-20 01:32N 43°34' E 007°06'0 0.0
2015-May-20 00:32N 43°34' E 007°06'0 0.0
2015-May-19 23:32N 43°34' E 007°06'0 0.0
2015-May-19 22:32N 43°34' E 007°06'0 0.0
2015-May-19 21:32N 43°34' E 007°06'0 0.0
2015-May-19 20:26N 43°34' E 007°06'0 0.0
2015-May-19 19:32N 43°34' E 007°06'0 0.0
2015-May-19 18:32N 43°34' E 007°06'0 0.0
2015-May-19 17:32N 43°34' E 007°06'0 0.1
2015-May-19 16:34N 43°34' E 007°06'1 0.6
2015-May-19 15:30N 43°33' E 007°07'0 0.0
2015-May-19 14:30N 43°33' E 007°07'0 0.0
2015-May-19 13:30N 43°33' E 007°07'0 0.0
2015-May-19 12:30N 43°33' E 007°07'4 4.3
2015-May-19 11:28N 43°31' E 007°01'0 0.1
2015-May-19 10:15N 43°31' E 007°01'811.0
2015-May-19 09:34N 43°35' E 007°10'4 3.9
2015-May-19 08:31N 43°39' E 007°11'0 0.0
2015-May-19 07:25N 43°39' E 007°11'0 0.0
2015-May-19 06:31N 43°39' E 007°11'0 0.0
2015-May-19 05:31N 43°39' E 007°11'0 0.0
2015-May-19 04:19N 43°39' E 007°11'0 0.0
2015-May-19 03:31N 43°39' E 007°11'0 0.0
2015-May-19 02:25N 43°39' E 007°11'0 0.0
2015-May-19 01:31N 43°39' E 007°11'0 0.0
2015-May-19 00:22N 43°39' E 007°11'7 8.5
2015-May-18 23:33N 43°32' E 007°09'6 4.5
2015-May-18 22:16N 43°32' E 007°01'0 0.0
2015-May-18 21:04N 43°32' E 007°01'0 0.0
2015-May-18 20:31N 43°32' E 007°01'3 0.4
2015-May-18 13:33N 43°30' E 007°05'3 2.6
2015-May-18 12:30N 43°33' E 007°07'0 0.0
2015-May-18 11:30N 43°33' E 007°07'0 0.0
2015-May-18 10:30N 43°33' E 007°07'0 0.0
2015-May-18 09:30N 43°33' E 007°07'0 0.0
2015-May-18 08:30N 43°33' E 007°07'0 0.0
2015-May-18 07:30N 43°33' E 007°07'0 0.0
2015-May-18 06:30N 43°33' E 007°07'0 0.0
2015-May-18 05:30N 43°33' E 007°07'0 0.0
2015-May-18 04:30N 43°33' E 007°07'0 0.0
2015-May-18 03:12N 43°33' E 007°07'0 0.0
2015-May-18 02:30N 43°33' E 007°07'0 0.0
2015-May-18 01:30N 43°33' E 007°07'0 0.0
2015-May-18 00:30N 43°33' E 007°07'0 0.0
2015-May-17 23:30N 43°33' E 007°07'2 2.2
2015-May-17 22:34N 43°32' E 007°09'7 6.6
2015-May-17 21:32N 43°39' E 007°11'0 0.0
2015-May-17 20:32N 43°39' E 007°11'0 0.0
2015-May-17 19:32N 43°39' E 007°11'0 0.0
2015-May-17 18:08N 43°39' E 007°11'0 0.0
2015-May-17 17:32N 43°39' E 007°11'0 0.0
2015-May-17 16:21N 43°39' E 007°11'0 0.0
2015-May-17 15:27N 43°39' E 007°11'0 0.0
2015-May-17 14:33N 43°39' E 007°11'0 0.0
2015-May-17 13:33N 43°39' E 007°11'0 0.0
2015-May-17 12:31N 43°39' E 007°11'0 0.0
2015-May-17 11:25N 43°39' E 007°11'0 0.0
2015-May-17 10:19N 43°39' E 007°11'0 0.0
2015-May-17 07:07N 43°39' E 007°11'0 0.0
2015-May-17 05:31N 43°39' E 007°11'0 0.0
2015-May-17 04:31N 43°39' E 007°11'0 0.0
2015-May-17 03:25N 43°39' E 007°11'0 0.0
2015-May-17 02:31N 43°39' E 007°11'0 0.0
2015-May-17 01:31N 43°39' E 007°11'0 0.0
2015-May-17 00:31N 43°39' E 007°11'0 0.0
2015-May-16 23:31N 43°39' E 007°11'0 0.0
2015-May-16 22:31N 43°39' E 007°11'0 0.0
2015-May-16 21:31N 43°39' E 007°11'0 0.0
2015-May-16 20:31N 43°39' E 007°11'0 0.0
2015-May-16 19:31N 43°39' E 007°11'0 0.0
2015-May-16 17:13N 43°39' E 007°11'0 0.0
2015-May-16 16:31N 43°39' E 007°11'0 0.0
2015-May-16 15:07N 43°39' E 007°11'3 0.9
2015-May-16 11:33N 43°36' E 007°11'  
Track history (hours):
 
Tides and Currents Weather Stations Pressure Air Temp Water Temp Dewpoint Dewpoint Depression Visibility Wind Speed Wind Dir Waves Ship Positions

C2

Last reported at 2015-May-25 12:33 UTC. Time now 2015-May-30 02:31 UTC.
Position N 43°08' E 006°42'.

Length 79 m; draft 3.4 m.

Type: Pleasure craft. MMSI: 319268000.

Date/timePositionNaut miles runAvg speedWind from/ knotsBaromVisibWave heightAir tempDewpointWater temp
2015-May-25 12:33N 43°08' E 006°42'1515.2
2015-May-25 11:33N 43°20' E 006°54'1515.2
2015-May-25 10:33N 43°32' E 007°08'8 7.2
2015-May-25 09:29N 43°39' E 007°11'7 7.4
2015-May-25 08:33N 43°33' E 007°07'4 3.9
2015-May-25 07:27N 43°31' E 007°01'2 0.1
2015-May-24 16:32N 43°33' E 007°01'3 1.6
2015-May-24 14:29N 43°30' E 007°03'4 4.1
2015-May-24 13:25N 43°33' E 007°07'0 0.0
2015-May-24 12:31N 43°33' E 007°07'0 0.0
2015-May-24 11:31N 43°33' E 007°07'4 0.8
2015-May-24 06:23N 43°33' E 007°01'0 0.0
2015-May-24 05:23N 43°33' E 007°01'0 0.0
2015-May-24 04:29N 43°33' E 007°01'0 0.0
2015-May-24 03:29N 43°33' E 007°01'3 0.1
2015-May-22 23:25N 43°29' E 006°59'6 0.6
2015-May-22 13:33N 43°33' E 007°07'0 0.1
2015-May-22 12:32N 43°33' E 007°07'0 0.0
2015-May-22 11:26N 43°33' E 007°07'0 0.1
2015-May-22 10:33N 43°33' E 007°07'1 0.7
2015-May-22 09:28N 43°34' E 007°06'0 0.0
2015-May-22 08:28N 43°34' E 007°06'0 0.0
2015-May-22 07:28N 43°33' E 007°06'0 0.0
2015-May-22 06:28N 43°33' E 007°06'0 0.0
2015-May-22 05:28N 43°33' E 007°06'0 0.0
2015-May-22 04:28N 43°33' E 007°06'0 0.0
2015-May-22 03:28N 43°33' E 007°06'0 0.0
2015-May-22 02:22N 43°33' E 007°06'0 0.0
2015-May-22 01:28N 43°33' E 007°06'0 0.0
2015-May-22 00:22N 43°33' E 007°06'0 0.0
2015-May-21 23:28N 43°33' E 007°06'0 0.0
2015-May-21 22:28N 43°33' E 007°06'0 0.0
2015-May-21 21:28N 43°33' E 007°06'0 0.0
2015-May-21 20:28N 43°33' E 007°06'0 0.0
2015-May-21 19:28N 43°33' E 007°06'0 0.0
2015-May-21 18:28N 43°33' E 007°06'0 0.0
2015-May-21 17:28N 43°33' E 007°06'0 0.0
2015-May-21 16:28N 43°34' E 007°06'0 0.0
2015-May-21 15:28N 43°34' E 007°06'0 0.0
2015-May-21 14:22N 43°34' E 007°06'0 0.0
2015-May-21 13:28N 43°34' E 007°06'1 0.9
2015-May-21 12:33N 43°33' E 007°06'4 0.7
2015-May-21 07:29N 43°33' E 007°01'0 0.0
2015-May-21 06:23N 43°33' E 007°01'0 0.0
2015-May-21 05:29N 43°33' E 007°01'0 0.0
2015-May-21 04:11N 43°33' E 007°01'0 0.0
2015-May-21 00:29N 43°33' E 007°01'0 0.0
2015-May-20 23:17N 43°33' E 007°01'0 0.0
2015-May-20 22:29N 43°33' E 007°01'0 0.0
2015-May-20 21:29N 43°33' E 007°01'0 0.0
2015-May-20 20:29N 43°33' E 007°01'0 0.0
2015-May-20 19:29N 43°33' E 007°01'0 0.1
2015-May-20 18:28N 43°32' E 007°01'0 0.0
2015-May-20 17:10N 43°32' E 007°01'1 0.9
2015-May-20 16:25N 43°32' E 007°02'0 0.0
2015-May-20 15:25N 43°32' E 007°02'0 0.0
2015-May-20 14:31N 43°32' E 007°02'0 0.0
2015-May-20 13:25N 43°32' E 007°02'0 0.0
2015-May-20 11:19N 43°32' E 007°02'0 0.0
2015-May-20 09:31N 43°32' E 007°02'0 0.0
2015-May-20 08:31N 43°32' E 007°02'0 0.0
2015-May-20 07:33N 43°32' E 007°02'4 3.7
2015-May-20 06:34N 43°34' E 007°06'0 0.0
2015-May-20 05:32N 43°34' E 007°06'0 0.0
2015-May-20 04:32N 43°34' E 007°06'0 0.0
2015-May-20 03:32N 43°34' E 007°06'0 0.0
2015-May-20 02:32N 43°34' E 007°06'0 0.0
2015-May-20 01:32N 43°34' E 007°06'0 0.0
2015-May-20 00:32N 43°34' E 007°06'0 0.0
2015-May-19 23:32N 43°34' E 007°06'0 0.0
2015-May-19 22:32N 43°34' E 007°06'0 0.0
2015-May-19 21:32N 43°34' E 007°06'0 0.0
2015-May-19 20:26N 43°34' E 007°06'0 0.0
2015-May-19 19:32N 43°34' E 007°06'0 0.0
2015-May-19 18:32N 43°34' E 007°06'0 0.0
2015-May-19 17:32N 43°34' E 007°06'0 0.1
2015-May-19 16:34N 43°34' E 007°06'1 0.6
2015-May-19 15:30N 43°33' E 007°07'0 0.0
2015-May-19 14:30N 43°33' E 007°07'0 0.0
2015-May-19 13:30N 43°33' E 007°07'0 0.0
2015-May-19 12:30N 43°33' E 007°07'4 4.3
2015-May-19 11:28N 43°31' E 007°01'0 0.1
2015-May-19 10:15N 43°31' E 007°01'811.0
2015-May-19 09:34N 43°35' E 007°10'4 3.9
2015-May-19 08:31N 43°39' E 007°11'0 0.0
2015-May-19 07:25N 43°39' E 007°11'0 0.0
2015-May-19 06:31N 43°39' E 007°11'0 0.0
2015-May-19 05:31N 43°39' E 007°11'0 0.0
2015-May-19 04:19N 43°39' E 007°11'0 0.0
2015-May-19 03:31N 43°39' E 007°11'0 0.0
2015-May-19 02:25N 43°39' E 007°11'0 0.0
2015-May-19 01:31N 43°39' E 007°11'0 0.0
2015-May-19 00:22N 43°39' E 007°11'7 8.5
2015-May-18 23:33N 43°32' E 007°09'6 4.5
2015-May-18 22:16N 43°32' E 007°01'0 0.0
2015-May-18 21:04N 43°32' E 007°01'0 0.0
2015-May-18 20:31N 43°32' E 007°01'3 0.4
2015-May-18 13:33N 43°30' E 007°05'3 2.6
2015-May-18 12:30N 43°33' E 007°07'0 0.0
2015-May-18 11:30N 43°33' E 007°07'0 0.0
2015-May-18 10:30N 43°33' E 007°07'0 0.0
2015-May-18 09:30N 43°33' E 007°07'0 0.0
2015-May-18 08:30N 43°33' E 007°07'0 0.0
2015-May-18 07:30N 43°33' E 007°07'0 0.0
2015-May-18 06:30N 43°33' E 007°07'0 0.0
2015-May-18 05:30N 43°33' E 007°07'0 0.0
2015-May-18 04:30N 43°33' E 007°07'0 0.0
2015-May-18 03:12N 43°33' E 007°07'0 0.0
2015-May-18 02:30N 43°33' E 007°07'0 0.0
2015-May-18 01:30N 43°33' E 007°07'0 0.0
2015-May-18 00:30N 43°33' E 007°07'0 0.0
2015-May-17 23:30N 43°33' E 007°07'2 2.2
2015-May-17 22:34N 43°32' E 007°09'7 6.6
2015-May-17 21:32N 43°39' E 007°11'0 0.0
2015-May-17 20:32N 43°39' E 007°11'0 0.0
2015-May-17 19:32N 43°39' E 007°11'0 0.0
2015-May-17 18:08N 43°39' E 007°11'0 0.0
2015-May-17 17:32N 43°39' E 007°11'0 0.0
2015-May-17 16:21N 43°39' E 007°11'0 0.0
2015-May-17 15:27N 43°39' E 007°11'0 0.0
2015-May-17 14:33N 43°39' E 007°11'0 0.0
2015-May-17 13:33N 43°39' E 007°11'0 0.0
2015-May-17 12:31N 43°39' E 007°11'0 0.0
2015-May-17 11:25N 43°39' E 007°11'0 0.0
2015-May-17 10:19N 43°39' E 007°11'0 0.0
2015-May-17 07:07N 43°39' E 007°11'0 0.0
2015-May-17 05:31N 43°39' E 007°11'0 0.0
2015-May-17 04:31N 43°39' E 007°11'0 0.0
2015-May-17 03:25N 43°39' E 007°11'0 0.0
2015-May-17 02:31N 43°39' E 007°11'0 0.0
2015-May-17 01:31N 43°39' E 007°11'0 0.0
2015-May-17 00:31N 43°39' E 007°11'0 0.0
2015-May-16 23:31N 43°39' E 007°11'0 0.0
2015-May-16 22:31N 43°39' E 007°11'0 0.0
2015-May-16 21:31N 43°39' E 007°11'0 0.0
2015-May-16 20:31N 43°39' E 007°11'0 0.0
2015-May-16 19:31N 43°39' E 007°11'0 0.0
2015-May-16 17:13N 43°39' E 007°11'0 0.0
2015-May-16 16:31N 43°39' E 007°11'0 0.0
2015-May-16 15:07N 43°39' E 007°11'3 0.9
2015-May-16 11:33N 43°36' E 007°11'  

Dump ship's entire track history